sensor_id;sensor_type;location;lat;lon;timestamp;P1;durP1;ratioP1;P2;durP2;ratioP2
17365;SDS011;8800;50.118;9.900;2023-04-22T00:00:55;10.10;;;5.50;;
17365;SDS011;8800;50.118;9.900;2023-04-22T00:03:21;8.93;;;5.30;;
17365;SDS011;8800;50.118;9.900;2023-04-22T00:05:47;8.00;;;5.07;;
17365;SDS011;8800;50.118;9.900;2023-04-22T00:08:14;10.02;;;5.55;;
17365;SDS011;8800;50.118;9.900;2023-04-22T00:10:42;9.07;;;5.10;;
17365;SDS011;8800;50.118;9.900;2023-04-22T00:13:08;9.02;;;5.22;;
17365;SDS011;8800;50.118;9.900;2023-04-22T00:15:34;9.30;;;5.47;;
17365;SDS011;8800;50.118;9.900;2023-04-22T00:18:01;9.00;;;5.00;;
17365;SDS011;8800;50.118;9.900;2023-04-22T00:20:27;9.40;;;5.63;;
17365;SDS011;8800;50.118;9.900;2023-04-22T00:22:56;9.38;;;5.18;;
17365;SDS011;8800;50.118;9.900;2023-04-22T00:25:22;7.28;;;4.60;;
17365;SDS011;8800;50.118;9.900;2023-04-22T00:27:50;7.05;;;4.93;;
17365;SDS011;8800;50.118;9.900;2023-04-22T00:30:16;10.32;;;5.28;;
17365;SDS011;8800;50.118;9.900;2023-04-22T00:32:43;9.18;;;6.00;;
17365;SDS011;8800;50.118;9.900;2023-04-22T00:35:09;8.68;;;5.53;;
17365;SDS011;8800;50.118;9.900;2023-04-22T00:37:36;8.70;;;4.72;;
17365;SDS011;8800;50.118;9.900;2023-04-22T00:40:02;8.38;;;4.97;;
17365;SDS011;8800;50.118;9.900;2023-04-22T00:42:30;7.93;;;4.63;;
17365;SDS011;8800;50.118;9.900;2023-04-22T00:44:58;7.50;;;4.55;;
17365;SDS011;8800;50.118;9.900;2023-04-22T00:47:25;7.60;;;5.10;;
17365;SDS011;8800;50.118;9.900;2023-04-22T00:49:52;8.02;;;5.28;;
17365;SDS011;8800;50.118;9.900;2023-04-22T00:52:18;8.57;;;5.10;;
17365;SDS011;8800;50.118;9.900;2023-04-22T00:54:45;8.68;;;5.05;;
17365;SDS011;8800;50.118;9.900;2023-04-22T00:57:13;6.88;;;4.78;;
17365;SDS011;8800;50.118;9.900;2023-04-22T00:59:40;8.52;;;5.03;;
17365;SDS011;8800;50.118;9.900;2023-04-22T01:02:08;11.07;;;5.15;;
17365;SDS011;8800;50.118;9.900;2023-04-22T01:04:35;7.47;;;4.78;;
17365;SDS011;8800;50.118;9.900;2023-04-22T01:07:01;9.50;;;5.07;;
17365;SDS011;8800;50.118;9.900;2023-04-22T01:09:28;7.30;;;4.93;;
17365;SDS011;8800;50.118;9.900;2023-04-22T01:11:55;7.43;;;5.00;;
17365;SDS011;8800;50.118;9.900;2023-04-22T01:14:22;8.13;;;4.97;;
17365;SDS011;8800;50.118;9.900;2023-04-22T01:16:49;11.25;;;4.85;;
17365;SDS011;8800;50.118;9.900;2023-04-22T01:19:17;8.32;;;4.93;;
17365;SDS011;8800;50.118;9.900;2023-04-22T01:21:43;7.95;;;4.45;;
17365;SDS011;8800;50.118;9.900;2023-04-22T01:24:12;10.45;;;4.68;;
17365;SDS011;8800;50.118;9.900;2023-04-22T01:26:38;10.57;;;4.82;;
17365;SDS011;8800;50.118;9.900;2023-04-22T01:29:05;10.27;;;5.25;;
17365;SDS011;8800;50.118;9.900;2023-04-22T01:31:31;7.75;;;4.90;;
17365;SDS011;8800;50.118;9.900;2023-04-22T01:33:58;9.02;;;4.70;;
17365;SDS011;8800;50.118;9.900;2023-04-22T01:36:25;9.88;;;4.95;;
17365;SDS011;8800;50.118;9.900;2023-04-22T01:38:51;9.55;;;5.50;;
17365;SDS011;8800;50.118;9.900;2023-04-22T01:41:19;8.23;;;5.10;;
17365;SDS011;8800;50.118;9.900;2023-04-22T01:43:46;8.68;;;5.80;;
17365;SDS011;8800;50.118;9.900;2023-04-22T01:46:15;10.55;;;5.30;;
17365;SDS011;8800;50.118;9.900;2023-04-22T01:48:41;8.82;;;5.13;;
17365;SDS011;8800;50.118;9.900;2023-04-22T01:51:14;8.48;;;5.35;;
17365;SDS011;8800;50.118;9.900;2023-04-22T01:53:40;8.93;;;5.63;;
17365;SDS011;8800;50.118;9.900;2023-04-22T01:56:07;9.43;;;5.85;;
17365;SDS011;8800;50.118;9.900;2023-04-22T01:58:35;9.90;;;5.55;;
17365;SDS011;8800;50.118;9.900;2023-04-22T02:01:04;9.75;;;5.82;;
17365;SDS011;8800;50.118;9.900;2023-04-22T02:03:30;8.60;;;5.13;;
17365;SDS011;8800;50.118;9.900;2023-04-22T02:05:57;8.60;;;5.20;;
17365;SDS011;8800;50.118;9.900;2023-04-22T02:08:23;10.13;;;5.35;;
17365;SDS011;8800;50.118;9.900;2023-04-22T02:10:50;8.95;;;6.00;;
17365;SDS011;8800;50.118;9.900;2023-04-22T02:13:16;9.93;;;5.78;;
17365;SDS011;8800;50.118;9.900;2023-04-22T02:15:44;10.02;;;5.45;;
17365;SDS011;8800;50.118;9.900;2023-04-22T02:18:11;8.43;;;5.40;;
17365;SDS011;8800;50.118;9.900;2023-04-22T02:20:37;10.38;;;5.95;;
17365;SDS011;8800;50.118;9.900;2023-04-22T02:23:04;8.88;;;5.25;;
17365;SDS011;8800;50.118;9.900;2023-04-22T02:25:30;9.25;;;5.82;;
17365;SDS011;8800;50.118;9.900;2023-04-22T02:27:57;11.63;;;5.80;;
17365;SDS011;8800;50.118;9.900;2023-04-22T02:30:23;10.80;;;5.60;;
17365;SDS011;8800;50.118;9.900;2023-04-22T02:32:51;9.73;;;5.30;;
17365;SDS011;8800;50.118;9.900;2023-04-22T02:35:17;8.40;;;5.20;;
17365;SDS011;8800;50.118;9.900;2023-04-22T02:37:44;9.80;;;5.72;;
17365;SDS011;8800;50.118;9.900;2023-04-22T02:40:11;9.07;;;5.20;;
17365;SDS011;8800;50.118;9.900;2023-04-22T02:42:37;9.02;;;5.13;;
17365;SDS011;8800;50.118;9.900;2023-04-22T02:45:04;9.82;;;5.60;;
17365;SDS011;8800;50.118;9.900;2023-04-22T02:47:31;9.15;;;4.97;;
17365;SDS011;8800;50.118;9.900;2023-04-22T02:49:59;7.97;;;5.50;;
17365;SDS011;8800;50.118;9.900;2023-04-22T02:52:25;10.07;;;5.85;;
17365;SDS011;8800;50.118;9.900;2023-04-22T02:54:52;8.43;;;5.40;;
17365;SDS011;8800;50.118;9.900;2023-04-22T02:57:18;8.70;;;5.32;;
17365;SDS011;8800;50.118;9.900;2023-04-22T02:59:45;8.70;;;5.50;;
17365;SDS011;8800;50.118;9.900;2023-04-22T03:02:11;7.75;;;5.25;;
17365;SDS011;8800;50.118;9.900;2023-04-22T03:04:38;11.30;;;5.65;;
17365;SDS011;8800;50.118;9.900;2023-04-22T03:07:06;8.73;;;5.63;;
17365;SDS011;8800;50.118;9.900;2023-04-22T03:09:32;9.98;;;5.38;;
17365;SDS011;8800;50.118;9.900;2023-04-22T03:11:59;9.38;;;5.60;;
17365;SDS011;8800;50.118;9.900;2023-04-22T03:14:26;10.77;;;6.22;;
17365;SDS011;8800;50.118;9.900;2023-04-22T03:16:53;8.30;;;5.47;;
17365;SDS011;8800;50.118;9.900;2023-04-22T03:19:19;15.00;;;6.13;;
17365;SDS011;8800;50.118;9.900;2023-04-22T03:21:46;9.73;;;5.22;;
17365;SDS011;8800;50.118;9.900;2023-04-22T03:24:14;10.27;;;5.97;;
17365;SDS011;8800;50.118;9.900;2023-04-22T03:26:40;8.52;;;5.85;;
17365;SDS011;8800;50.118;9.900;2023-04-22T03:29:07;11.10;;;6.15;;
17365;SDS011;8800;50.118;9.900;2023-04-22T03:31:33;10.13;;;5.85;;
17365;SDS011;8800;50.118;9.900;2023-04-22T03:34:01;8.95;;;6.00;;
17365;SDS011;8800;50.118;9.900;2023-04-22T03:36:29;11.10;;;5.82;;
17365;SDS011;8800;50.118;9.900;2023-04-22T03:38:55;9.85;;;5.15;;
17365;SDS011;8800;50.118;9.900;2023-04-22T03:41:23;8.20;;;5.70;;
17365;SDS011;8800;50.118;9.900;2023-04-22T03:43:50;9.88;;;5.60;;
17365;SDS011;8800;50.118;9.900;2023-04-22T03:46:17;7.75;;;5.20;;
17365;SDS011;8800;50.118;9.900;2023-04-22T03:48:43;9.85;;;5.13;;
17365;SDS011;8800;50.118;9.900;2023-04-22T03:51:10;10.23;;;5.30;;
17365;SDS011;8800;50.118;9.900;2023-04-22T03:53:36;9.88;;;5.40;;
17365;SDS011;8800;50.118;9.900;2023-04-22T03:56:03;7.70;;;5.30;;
17365;SDS011;8800;50.118;9.900;2023-04-22T03:58:31;9.63;;;5.45;;
17365;SDS011;8800;50.118;9.900;2023-04-22T04:00:58;8.40;;;5.28;;
17365;SDS011;8800;50.118;9.900;2023-04-22T04:03:24;7.53;;;5.32;;
17365;SDS011;8800;50.118;9.900;2023-04-22T04:05:51;9.60;;;5.65;;
17365;SDS011;8800;50.118;9.900;2023-04-22T04:08:18;8.35;;;5.68;;
17365;SDS011;8800;50.118;9.900;2023-04-22T04:10:45;8.98;;;5.47;;
17365;SDS011;8800;50.118;9.900;2023-04-22T04:13:11;10.35;;;5.80;;
17365;SDS011;8800;50.118;9.900;2023-04-22T04:15:39;9.18;;;5.55;;
17365;SDS011;8800;50.118;9.900;2023-04-22T04:18:07;10.68;;;5.72;;
17365;SDS011;8800;50.118;9.900;2023-04-22T04:20:33;8.82;;;5.50;;
17365;SDS011;8800;50.118;9.900;2023-04-22T04:23:00;9.52;;;5.40;;
17365;SDS011;8800;50.118;9.900;2023-04-22T04:25:26;12.07;;;5.72;;
17365;SDS011;8800;50.118;9.900;2023-04-22T04:28:01;8.98;;;5.63;;
17365;SDS011;8800;50.118;9.900;2023-04-22T04:30:29;9.35;;;5.50;;
17365;SDS011;8800;50.118;9.900;2023-04-22T04:32:57;8.25;;;5.35;;
17365;SDS011;8800;50.118;9.900;2023-04-22T04:35:24;10.90;;;5.22;;
17365;SDS011;8800;50.118;9.900;2023-04-22T04:37:52;8.30;;;5.30;;
17365;SDS011;8800;50.118;9.900;2023-04-22T04:40:19;13.35;;;5.65;;
17365;SDS011;8800;50.118;9.900;2023-04-22T04:42:46;11.82;;;5.53;;
17365;SDS011;8800;50.118;9.900;2023-04-22T04:45:12;11.48;;;6.72;;
17365;SDS011;8800;50.118;9.900;2023-04-22T04:47:38;11.13;;;6.43;;
17365;SDS011;8800;50.118;9.900;2023-04-22T04:50:07;11.60;;;6.65;;
17365;SDS011;8800;50.118;9.900;2023-04-22T04:52:33;11.15;;;6.38;;
17365;SDS011;8800;50.118;9.900;2023-04-22T04:55:01;9.45;;;5.90;;
17365;SDS011;8800;50.118;9.900;2023-04-22T04:57:28;9.88;;;6.00;;
17365;SDS011;8800;50.118;9.900;2023-04-22T04:59:55;8.75;;;5.50;;
17365;SDS011;8800;50.118;9.900;2023-04-22T05:02:22;14.18;;;5.57;;
17365;SDS011;8800;50.118;9.900;2023-04-22T05:04:48;14.05;;;7.57;;
17365;SDS011;8800;50.118;9.900;2023-04-22T05:07:17;14.23;;;7.40;;
17365;SDS011;8800;50.118;9.900;2023-04-22T05:09:44;13.02;;;7.80;;
17365;SDS011;8800;50.118;9.900;2023-04-22T05:12:14;12.32;;;7.63;;
17365;SDS011;8800;50.118;9.900;2023-04-22T05:14:40;10.55;;;6.82;;
17365;SDS011;8800;50.118;9.900;2023-04-22T05:17:07;9.95;;;6.15;;
17365;SDS011;8800;50.118;9.900;2023-04-22T05:19:34;9.85;;;5.63;;
17365;SDS011;8800;50.118;9.900;2023-04-22T05:22:00;9.88;;;5.18;;
17365;SDS011;8800;50.118;9.900;2023-04-22T05:24:28;8.98;;;5.47;;
17365;SDS011;8800;50.118;9.900;2023-04-22T05:26:55;8.73;;;5.63;;
17365;SDS011;8800;50.118;9.900;2023-04-22T05:29:22;8.52;;;5.32;;
17365;SDS011;8800;50.118;9.900;2023-04-22T05:31:48;10.43;;;5.15;;
17365;SDS011;8800;50.118;9.900;2023-04-22T05:34:15;9.63;;;5.47;;
17365;SDS011;8800;50.118;9.900;2023-04-22T05:36:41;10.35;;;5.70;;
17365;SDS011;8800;50.118;9.900;2023-04-22T05:39:08;8.05;;;4.80;;
17365;SDS011;8800;50.118;9.900;2023-04-22T05:41:36;8.55;;;5.18;;
17365;SDS011;8800;50.118;9.900;2023-04-22T05:44:02;6.93;;;5.05;;
17365;SDS011;8800;50.118;9.900;2023-04-22T05:46:29;9.93;;;5.55;;
17365;SDS011;8800;50.118;9.900;2023-04-22T05:48:55;7.45;;;4.97;;
17365;SDS011;8800;50.118;9.900;2023-04-22T05:51:22;9.43;;;5.00;;
17365;SDS011;8800;50.118;9.900;2023-04-22T05:53:48;6.72;;;4.60;;
17365;SDS011;8800;50.118;9.900;2023-04-22T05:56:15;9.20;;;5.55;;
17365;SDS011;8800;50.118;9.900;2023-04-22T05:58:43;7.85;;;4.70;;
17365;SDS011;8800;50.118;9.900;2023-04-22T06:01:09;8.00;;;4.85;;
17365;SDS011;8800;50.118;9.900;2023-04-22T06:03:36;8.23;;;5.28;;
17365;SDS011;8800;50.118;9.900;2023-04-22T06:06:03;8.25;;;5.18;;
17365;SDS011;8800;50.118;9.900;2023-04-22T06:08:30;7.82;;;5.07;;
17365;SDS011;8800;50.118;9.900;2023-04-22T06:10:56;6.82;;;5.07;;
17365;SDS011;8800;50.118;9.900;2023-04-22T06:13:23;7.18;;;5.03;;
17365;SDS011;8800;50.118;9.900;2023-04-22T06:15:51;8.75;;;5.00;;
17365;SDS011;8800;50.118;9.900;2023-04-22T06:18:17;6.95;;;4.90;;
17365;SDS011;8800;50.118;9.900;2023-04-22T06:20:44;8.27;;;4.30;;
17365;SDS011;8800;50.118;9.900;2023-04-22T06:23:10;8.77;;;4.38;;
17365;SDS011;8800;50.118;9.900;2023-04-22T06:25:37;6.38;;;4.50;;
17365;SDS011;8800;50.118;9.900;2023-04-22T06:28:04;5.80;;;4.18;;
17365;SDS011;8800;50.118;9.900;2023-04-22T06:30:30;8.35;;;4.05;;
17365;SDS011;8800;50.118;9.900;2023-04-22T06:32:58;8.50;;;4.00;;
17365;SDS011;8800;50.118;9.900;2023-04-22T06:35:25;6.38;;;3.88;;
17365;SDS011;8800;50.118;9.900;2023-04-22T06:37:51;8.60;;;3.78;;
17365;SDS011;8800;50.118;9.900;2023-04-22T06:40:18;7.07;;;3.80;;
17365;SDS011;8800;50.118;9.900;2023-04-22T06:42:45;6.47;;;3.40;;
17365;SDS011;8800;50.118;9.900;2023-04-22T06:45:11;6.95;;;3.83;;
17365;SDS011;8800;50.118;9.900;2023-04-22T06:47:38;8.35;;;3.90;;
17365;SDS011;8800;50.118;9.900;2023-04-22T06:50:07;8.00;;;4.10;;
17365;SDS011;8800;50.118;9.900;2023-04-22T06:52:33;9.07;;;4.00;;
17365;SDS011;8800;50.118;9.900;2023-04-22T06:55:00;6.50;;;3.60;;
17365;SDS011;8800;50.118;9.900;2023-04-22T06:57:27;10.73;;;4.03;;
17365;SDS011;8800;50.118;9.900;2023-04-22T06:59:54;7.65;;;3.80;;
17365;SDS011;8800;50.118;9.900;2023-04-22T07:02:21;7.93;;;3.47;;
17365;SDS011;8800;50.118;9.900;2023-04-22T07:04:47;8.45;;;3.53;;
17365;SDS011;8800;50.118;9.900;2023-04-22T07:07:15;8.88;;;3.55;;
17365;SDS011;8800;50.118;9.900;2023-04-22T07:09:42;8.77;;;3.65;;
17365;SDS011;8800;50.118;9.900;2023-04-22T07:12:09;7.20;;;3.40;;
17365;SDS011;8800;50.118;9.900;2023-04-22T07:14:35;8.55;;;3.90;;
17365;SDS011;8800;50.118;9.900;2023-04-22T07:17:02;7.22;;;3.50;;
17365;SDS011;8800;50.118;9.900;2023-04-22T07:19:29;8.65;;;3.90;;
17365;SDS011;8800;50.118;9.900;2023-04-22T07:21:55;7.55;;;3.40;;
17365;SDS011;8800;50.118;9.900;2023-04-22T07:24:24;7.10;;;3.53;;
17365;SDS011;8800;50.118;9.900;2023-04-22T07:26:51;6.00;;;3.45;;
17365;SDS011;8800;50.118;9.900;2023-04-22T07:29:17;10.80;;;3.70;;
17365;SDS011;8800;50.118;9.900;2023-04-22T07:31:44;5.13;;;3.58;;
17365;SDS011;8800;50.118;9.900;2023-04-22T07:34:11;6.18;;;3.42;;
17365;SDS011;8800;50.118;9.900;2023-04-22T07:36:38;5.72;;;3.10;;
17365;SDS011;8800;50.118;9.900;2023-04-22T07:39:04;9.80;;;4.10;;
17365;SDS011;8800;50.118;9.900;2023-04-22T07:41:33;8.43;;;3.80;;
17365;SDS011;8800;50.118;9.900;2023-04-22T07:44:00;7.50;;;4.00;;
17365;SDS011;8800;50.118;9.900;2023-04-22T07:46:27;8.40;;;3.53;;
17365;SDS011;8800;50.118;9.900;2023-04-22T07:48:53;9.15;;;4.22;;
17365;SDS011;8800;50.118;9.900;2023-04-22T07:51:20;4.85;;;3.50;;
17365;SDS011;8800;50.118;9.900;2023-04-22T07:53:46;6.13;;;3.72;;
17365;SDS011;8800;50.118;9.900;2023-04-22T07:56:13;6.85;;;3.47;;
17365;SDS011;8800;50.118;9.900;2023-04-22T07:58:40;5.85;;;3.60;;
17365;SDS011;8800;50.118;9.900;2023-04-22T08:01:07;10.98;;;3.38;;
17365;SDS011;8800;50.118;9.900;2023-04-22T08:03:33;6.18;;;3.55;;
17365;SDS011;8800;50.118;9.900;2023-04-22T08:06:00;8.73;;;3.65;;
17365;SDS011;8800;50.118;9.900;2023-04-22T08:08:26;5.78;;;3.72;;
17365;SDS011;8800;50.118;9.900;2023-04-22T08:10:52;8.35;;;4.03;;
17365;SDS011;8800;50.118;9.900;2023-04-22T08:13:19;8.13;;;3.63;;
17365;SDS011;8800;50.118;9.900;2023-04-22T08:15:47;8.13;;;3.67;;
17365;SDS011;8800;50.118;9.900;2023-04-22T08:18:13;7.00;;;3.50;;
17365;SDS011;8800;50.118;9.900;2023-04-22T08:20:39;10.55;;;3.92;;
17365;SDS011;8800;50.118;9.900;2023-04-22T08:23:06;7.18;;;3.72;;
17365;SDS011;8800;50.118;9.900;2023-04-22T08:25:33;5.68;;;3.70;;
17365;SDS011;8800;50.118;9.900;2023-04-22T08:27:59;6.18;;;3.55;;
17365;SDS011;8800;50.118;9.900;2023-04-22T08:30:26;6.65;;;3.25;;
17365;SDS011;8800;50.118;9.900;2023-04-22T08:32:54;5.07;;;3.00;;
17365;SDS011;8800;50.118;9.900;2023-04-22T08:35:20;8.13;;;3.30;;
17365;SDS011;8800;50.118;9.900;2023-04-22T08:37:46;5.65;;;3.30;;
17365;SDS011;8800;50.118;9.900;2023-04-22T08:40:13;6.82;;;3.00;;
17365;SDS011;8800;50.118;9.900;2023-04-22T08:42:39;6.43;;;2.92;;
17365;SDS011;8800;50.118;9.900;2023-04-22T08:45:06;9.07;;;3.53;;
17365;SDS011;8800;50.118;9.900;2023-04-22T08:47:33;6.50;;;3.47;;
17365;SDS011;8800;50.118;9.900;2023-04-22T08:50:02;7.82;;;3.40;;
17365;SDS011;8800;50.118;9.900;2023-04-22T08:52:29;6.93;;;3.38;;
17365;SDS011;8800;50.118;9.900;2023-04-22T08:54:55;8.30;;;3.17;;
17365;SDS011;8800;50.118;9.900;2023-04-22T08:57:22;8.55;;;3.10;;
17365;SDS011;8800;50.118;9.900;2023-04-22T08:59:49;10.63;;;3.35;;
17365;SDS011;8800;50.118;9.900;2023-04-22T09:02:15;5.43;;;3.22;;
17365;SDS011;8800;50.118;9.900;2023-04-22T09:04:42;9.07;;;3.42;;
17365;SDS011;8800;50.118;9.900;2023-04-22T09:07:10;11.10;;;2.95;;
17365;SDS011;8800;50.118;9.900;2023-04-22T09:09:39;5.50;;;3.10;;
17365;SDS011;8800;50.118;9.900;2023-04-22T09:12:08;8.30;;;3.40;;
17365;SDS011;8800;50.118;9.900;2023-04-22T09:14:35;7.15;;;3.50;;
17365;SDS011;8800;50.118;9.900;2023-04-22T09:17:01;7.18;;;3.05;;
17365;SDS011;8800;50.118;9.900;2023-04-22T09:19:28;4.07;;;3.00;;
17365;SDS011;8800;50.118;9.900;2023-04-22T09:21:56;5.07;;;3.20;;
17365;SDS011;8800;50.118;9.900;2023-04-22T09:24:24;6.40;;;3.42;;
17365;SDS011;8800;50.118;9.900;2023-04-22T09:26:50;5.82;;;3.53;;
17365;SDS011;8800;50.118;9.900;2023-04-22T09:29:17;5.80;;;3.40;;
17365;SDS011;8800;50.118;9.900;2023-04-22T09:31:46;7.80;;;3.25;;
17365;SDS011;8800;50.118;9.900;2023-04-22T09:34:13;6.35;;;3.20;;
17365;SDS011;8800;50.118;9.900;2023-04-22T09:36:39;6.82;;;3.42;;
17365;SDS011;8800;50.118;9.900;2023-04-22T09:39:08;5.10;;;3.10;;
17365;SDS011;8800;50.118;9.900;2023-04-22T09:41:36;5.25;;;3.20;;
17365;SDS011;8800;50.118;9.900;2023-04-22T09:44:07;6.97;;;3.22;;
17365;SDS011;8800;50.118;9.900;2023-04-22T09:46:34;5.90;;;3.10;;
17365;SDS011;8800;50.118;9.900;2023-04-22T09:49:00;10.43;;;3.15;;
17365;SDS011;8800;50.118;9.900;2023-04-22T09:51:27;7.75;;;3.30;;
17365;SDS011;8800;50.118;9.900;2023-04-22T09:53:57;7.10;;;3.42;;
17365;SDS011;8800;50.118;9.900;2023-04-22T09:59:07;4.35;;;3.00;;
17365;SDS011;8800;50.118;9.900;2023-04-22T10:01:34;3.75;;;2.85;;
17365;SDS011;8800;50.118;9.900;2023-04-22T10:04:00;8.55;;;4.03;;
17365;SDS011;8800;50.118;9.900;2023-04-22T10:06:27;5.53;;;2.97;;
17365;SDS011;8800;50.118;9.900;2023-04-22T10:08:56;7.43;;;3.08;;
17365;SDS011;8800;50.118;9.900;2023-04-22T10:11:24;6.07;;;2.97;;
17365;SDS011;8800;50.118;9.900;2023-04-22T10:13:50;5.68;;;3.03;;
17365;SDS011;8800;50.118;9.900;2023-04-22T10:16:18;5.22;;;3.45;;
17365;SDS011;8800;50.118;9.900;2023-04-22T10:18:45;5.03;;;2.95;;
17365;SDS011;8800;50.118;9.900;2023-04-22T10:21:12;7.47;;;3.35;;
17365;SDS011;8800;50.118;9.900;2023-04-22T10:23:41;7.13;;;3.50;;
17365;SDS011;8800;50.118;9.900;2023-04-22T10:26:10;7.25;;;3.10;;
17365;SDS011;8800;50.118;9.900;2023-04-22T10:28:40;4.72;;;2.83;;
17365;SDS011;8800;50.118;9.900;2023-04-22T10:31:19;4.43;;;2.75;;
17365;SDS011;8800;50.118;9.900;2023-04-22T10:33:47;8.07;;;2.50;;
17365;SDS011;8800;50.118;9.900;2023-04-22T10:36:15;5.15;;;2.30;;
17365;SDS011;8800;50.118;9.900;2023-04-22T10:41:23;4.57;;;2.30;;
17365;SDS011;8800;50.118;9.900;2023-04-22T10:43:54;2.72;;;2.22;;
17365;SDS011;8800;50.118;9.900;2023-04-22T10:49:11;5.15;;;2.80;;
17365;SDS011;8800;50.118;9.900;2023-04-22T10:51:38;4.43;;;2.40;;
17365;SDS011;8800;50.118;9.900;2023-04-22T10:54:04;7.43;;;2.80;;
17365;SDS011;8800;50.118;9.900;2023-04-22T10:56:30;6.15;;;2.65;;
17365;SDS011;8800;50.118;9.900;2023-04-22T10:58:57;3.85;;;2.35;;
17365;SDS011;8800;50.118;9.900;2023-04-22T11:01:26;6.90;;;2.83;;
17365;SDS011;8800;50.118;9.900;2023-04-22T11:03:53;5.68;;;2.67;;
17365;SDS011;8800;50.118;9.900;2023-04-22T11:06:20;5.00;;;2.45;;
17365;SDS011;8800;50.118;9.900;2023-04-22T11:08:51;5.75;;;3.08;;
17365;SDS011;8800;50.118;9.900;2023-04-22T11:11:32;5.15;;;2.85;;
17365;SDS011;8800;50.118;9.900;2023-04-22T11:13:58;5.15;;;2.80;;
17365;SDS011;8800;50.118;9.900;2023-04-22T11:16:25;5.75;;;2.65;;
17365;SDS011;8800;50.118;9.900;2023-04-22T11:18:52;5.03;;;2.60;;
17365;SDS011;8800;50.118;9.900;2023-04-22T11:21:18;5.15;;;2.30;;
17365;SDS011;8800;50.118;9.900;2023-04-22T11:23:49;5.47;;;3.17;;
17365;SDS011;8800;50.118;9.900;2023-04-22T11:26:16;4.95;;;2.55;;
17365;SDS011;8800;50.118;9.900;2023-04-22T11:28:44;6.10;;;2.50;;
17365;SDS011;8800;50.118;9.900;2023-04-22T11:31:10;4.72;;;2.70;;
17365;SDS011;8800;50.118;9.900;2023-04-22T11:33:38;4.60;;;2.42;;
17365;SDS011;8800;50.118;9.900;2023-04-22T11:38:34;2.58;;;2.10;;
17365;SDS011;8800;50.118;9.900;2023-04-22T11:41:02;3.67;;;2.10;;
17365;SDS011;8800;50.118;9.900;2023-04-22T11:43:29;5.25;;;1.83;;
17365;SDS011;8800;50.118;9.900;2023-04-22T11:45:56;7.30;;;2.10;;
17365;SDS011;8800;50.118;9.900;2023-04-22T11:48:22;5.57;;;2.20;;
17365;SDS011;8800;50.118;9.900;2023-04-22T11:50:49;2.70;;;1.80;;
17365;SDS011;8800;50.118;9.900;2023-04-22T11:53:31;2.42;;;1.98;;
17365;SDS011;8800;50.118;9.900;2023-04-22T11:55:58;5.60;;;2.10;;
17365;SDS011;8800;50.118;9.900;2023-04-22T11:58:26;6.13;;;2.13;;
17365;SDS011;8800;50.118;9.900;2023-04-22T12:00:53;5.05;;;2.50;;
17365;SDS011;8800;50.118;9.900;2023-04-22T12:03:20;4.35;;;2.00;;
17365;SDS011;8800;50.118;9.900;2023-04-22T12:05:49;5.65;;;2.75;;
17365;SDS011;8800;50.118;9.900;2023-04-22T12:08:17;5.70;;;2.35;;
17365;SDS011;8800;50.118;9.900;2023-04-22T12:10:44;5.05;;;2.58;;
17365;SDS011;8800;50.118;9.900;2023-04-22T12:13:16;3.70;;;2.70;;
17365;SDS011;8800;50.118;9.900;2023-04-22T12:15:44;6.45;;;2.80;;
17365;SDS011;8800;50.118;9.900;2023-04-22T12:18:11;3.80;;;2.33;;
17365;SDS011;8800;50.118;9.900;2023-04-22T12:20:38;3.67;;;2.53;;
17365;SDS011;8800;50.118;9.900;2023-04-22T12:23:05;3.72;;;2.50;;
17365;SDS011;8800;50.118;9.900;2023-04-22T12:25:31;4.68;;;2.40;;
17365;SDS011;8800;50.118;9.900;2023-04-22T12:27:58;6.53;;;2.60;;
17365;SDS011;8800;50.118;9.900;2023-04-22T12:30:25;3.53;;;2.42;;
17365;SDS011;8800;50.118;9.900;2023-04-22T12:32:53;4.38;;;2.60;;
17365;SDS011;8800;50.118;9.900;2023-04-22T12:35:19;4.55;;;2.40;;
17365;SDS011;8800;50.118;9.900;2023-04-22T12:37:46;5.97;;;2.90;;
17365;SDS011;8800;50.118;9.900;2023-04-22T12:40:12;6.18;;;2.90;;
17365;SDS011;8800;50.118;9.900;2023-04-22T12:42:39;3.97;;;2.25;;
17365;SDS011;8800;50.118;9.900;2023-04-22T12:45:05;3.55;;;2.10;;
17365;SDS011;8800;50.118;9.900;2023-04-22T12:47:33;3.20;;;2.13;;
17365;SDS011;8800;50.118;9.900;2023-04-22T12:50:00;3.05;;;2.28;;
17365;SDS011;8800;50.118;9.900;2023-04-22T12:52:30;2.88;;;2.45;;
17365;SDS011;8800;50.118;9.900;2023-04-22T12:54:56;3.10;;;2.40;;
17365;SDS011;8800;50.118;9.900;2023-04-22T12:57:24;3.53;;;2.50;;
17365;SDS011;8800;50.118;9.900;2023-04-22T12:59:50;3.55;;;2.42;;
17365;SDS011;8800;50.118;9.900;2023-04-22T13:02:16;3.42;;;2.35;;
17365;SDS011;8800;50.118;9.900;2023-04-22T13:04:43;3.20;;;2.15;;
17365;SDS011;8800;50.118;9.900;2023-04-22T13:07:11;4.25;;;2.00;;
17365;SDS011;8800;50.118;9.900;2023-04-22T13:09:37;3.47;;;2.17;;
17365;SDS011;8800;50.118;9.900;2023-04-22T13:12:04;2.35;;;1.73;;
17365;SDS011;8800;50.118;9.900;2023-04-22T13:14:30;3.85;;;1.80;;
17365;SDS011;8800;50.118;9.900;2023-04-22T13:16:57;2.65;;;1.90;;
17365;SDS011;8800;50.118;9.900;2023-04-22T13:19:23;2.15;;;1.75;;
17365;SDS011;8800;50.118;9.900;2023-04-22T13:21:51;3.20;;;2.00;;
17365;SDS011;8800;50.118;9.900;2023-04-22T13:24:18;2.88;;;1.73;;
17365;SDS011;8800;50.118;9.900;2023-04-22T13:26:45;2.45;;;1.42;;
17365;SDS011;8800;50.118;9.900;2023-04-22T13:29:12;2.58;;;1.85;;
17365;SDS011;8800;50.118;9.900;2023-04-22T13:31:38;2.45;;;1.60;;
17365;SDS011;8800;50.118;9.900;2023-04-22T13:34:04;3.50;;;1.67;;
17365;SDS011;8800;50.118;9.900;2023-04-22T13:36:31;2.28;;;1.80;;
17365;SDS011;8800;50.118;9.900;2023-04-22T13:38:58;3.05;;;1.73;;
17365;SDS011;8800;50.118;9.900;2023-04-22T13:41:26;5.25;;;2.00;;
17365;SDS011;8800;50.118;9.900;2023-04-22T13:43:53;2.40;;;2.10;;
17365;SDS011;8800;50.118;9.900;2023-04-22T13:46:20;3.60;;;2.00;;
17365;SDS011;8800;50.118;9.900;2023-04-22T13:48:46;3.67;;;1.67;;
17365;SDS011;8800;50.118;9.900;2023-04-22T13:51:13;3.25;;;1.80;;
17365;SDS011;8800;50.118;9.900;2023-04-22T13:53:39;4.72;;;2.20;;
17365;SDS011;8800;50.118;9.900;2023-04-22T13:56:06;3.15;;;1.92;;
17365;SDS011;8800;50.118;9.900;2023-04-22T13:58:34;1.77;;;1.60;;
17365;SDS011;8800;50.118;9.900;2023-04-22T14:01:00;1.85;;;1.40;;
17365;SDS011;8800;50.118;9.900;2023-04-22T14:03:26;3.38;;;1.52;;
17365;SDS011;8800;50.118;9.900;2023-04-22T14:05:55;1.75;;;1.10;;
17365;SDS011;8800;50.118;9.900;2023-04-22T14:08:21;2.80;;;1.20;;
17365;SDS011;8800;50.118;9.900;2023-04-22T14:10:47;3.03;;;1.13;;
17365;SDS011;8800;50.118;9.900;2023-04-22T14:13:14;2.22;;;1.15;;
17365;SDS011;8800;50.118;9.900;2023-04-22T14:15:41;1.77;;;1.08;;
17365;SDS011;8800;50.118;9.900;2023-04-22T14:18:08;4.78;;;1.23;;
17365;SDS011;8800;50.118;9.900;2023-04-22T14:20:34;1.00;;;0.90;;
17365;SDS011;8800;50.118;9.900;2023-04-22T14:23:01;2.38;;;1.05;;
17365;SDS011;8800;50.118;9.900;2023-04-22T14:25:29;1.77;;;1.00;;
17365;SDS011;8800;50.118;9.900;2023-04-22T14:27:55;3.33;;;1.10;;
17365;SDS011;8800;50.118;9.900;2023-04-22T14:30:22;2.22;;;1.02;;
17365;SDS011;8800;50.118;9.900;2023-04-22T14:32:49;1.63;;;1.10;;
17365;SDS011;8800;50.118;9.900;2023-04-22T14:35:16;1.30;;;1.00;;
17365;SDS011;8800;50.118;9.900;2023-04-22T14:37:43;1.88;;;1.17;;
17365;SDS011;8800;50.118;9.900;2023-04-22T14:40:09;2.58;;;1.15;;
17365;SDS011;8800;50.118;9.900;2023-04-22T14:42:37;3.70;;;1.38;;
17365;SDS011;8800;50.118;9.900;2023-04-22T14:45:04;2.75;;;1.20;;
17365;SDS011;8800;50.118;9.900;2023-04-22T14:47:30;2.58;;;1.10;;
17365;SDS011;8800;50.118;9.900;2023-04-22T14:49:58;1.83;;;1.20;;
17365;SDS011;8800;50.118;9.900;2023-04-22T14:52:25;1.55;;;1.13;;
17365;SDS011;8800;50.118;9.900;2023-04-22T14:54:53;2.13;;;1.20;;
17365;SDS011;8800;50.118;9.900;2023-04-22T14:57:19;2.35;;;1.30;;
17365;SDS011;8800;50.118;9.900;2023-04-22T14:59:46;3.00;;;1.50;;
17365;SDS011;8800;50.118;9.900;2023-04-22T15:02:12;2.30;;;1.20;;
17365;SDS011;8800;50.118;9.900;2023-04-22T15:04:40;2.80;;;1.13;;
17365;SDS011;8800;50.118;9.900;2023-04-22T15:07:08;4.25;;;1.30;;
17365;SDS011;8800;50.118;9.900;2023-04-22T15:09:34;2.50;;;1.13;;